Weather reports worldwide

Advertisment
Malaga,Puerto, Spain (8479): temperature & dewpoint: 08.11.2018 13:00:00 - 14.11.2018 13:00:00 (CET)Malaga,Puerto, Spain (8479): wind speed & gusts: 08.11.2018 13:00:00 - 14.11.2018 13:00:00 (CET)Malaga,Puerto, Spain (8479): wind direction: 08.11.2018 13:00:00 - 14.11.2018 13:00:00 (CET)Malaga,Puerto, Spain (8479): reduced air pressure: 08.11.2018 13:00:00 - 14.11.2018 13:00:00 (CET)Malaga,Puerto, Spain (8479): precipitation: 08.11.2018 13:00:00 - 14.11.2018 13:00:00 (CET)
Date & Time tt [°C] td [°C] ff [km/h] ff [kn] fx [km/h] fx [kn] dd ppp [hPa] rr [mm]
14.11.2018 13:00:00 - - - - - - - - -
14.11.2018 12:00:00 19,6 12,4 5 3 23 12 E 1018,5 0,0
14.11.2018 11:00:00 19,4 11,4 7 4 16 9 ENE 1018,9 0,0
14.11.2018 10:00:00 18,6 11,4 2 1 10 5 NW 1019,1 0,0
14.11.2018 09:00:00 16,9 11,0 8 4 13 7 NNW 1019,1 0,0
14.11.2018 08:00:00 16,5 10,8 8 4 16 9 NNW 1018,7 0,0
14.11.2018 07:00:00 16,3 11,0 6 3 14 8 NW 1018,6 -
14.11.2018 06:00:00 16,5 11,7 9 5 18 10 NW 1018,7 0,0
14.11.2018 05:00:00 17,0 12,3 8 4 15 8 W 1019,0 0,0
14.11.2018 04:00:00 16,7 11,6 8 4 18 10 NW 1018,9 0,0
14.11.2018 03:00:00 16,5 12,3 8 5 16 9 NNW 1019,7 0,0
14.11.2018 02:00:00 16,1 12,1 4 2 14 7 NNW 1020,6 0,0
14.11.2018 01:00:00 16,5 12,3 5 3 11 6 NNW 1021,2 -
14.11.2018 00:00:00 17,4 13,1 1 1 16 9 NE 1021,7 0,0
13.11.2018 23:00:00 17,5 13,2 1 1 7 4 E 1022,1 0,0
13.11.2018 22:00:00 17,7 13,2 2 1 8 4 NNW 1021,6 0,0
13.11.2018 21:00:00 17,7 13,2 3 2 7 4 NE 1021,4 0,0
13.11.2018 20:00:00 18,1 12,5 2 1 9 5 SE 1021,6 0,0
13.11.2018 19:00:00 17,9 12,1 0 0 5 3 S 1021,5 -
13.11.2018 18:00:00 18,1 12,1 5 3 19 10 SE 1021,3 0,0
13.11.2018 17:00:00 18,4 11,2 5 3 11 6 ESE 1020,9 0,0
13.11.2018 16:00:00 19,8 10,5 8 5 12 6 S 1020,4 0,0
13.11.2018 15:00:00 20,2 10,9 7 4 13 7 SSE 1020,3 0,0
13.11.2018 14:00:00 20,7 9,9 4 2 12 7 SE 1020,6 0,0
13.11.2018 13:00:00 21,5 10,4 3 2 9 5 S 1021,3 -
13.11.2018 12:00:00 20,8 11,4 1 1 9 5 W 1021,9 0,0
13.11.2018 11:00:00 18,1 10,5 5 3 11 6 W 1022,2 0,0
13.11.2018 10:00:00 16,5 9,0 8 4 11 6 NW 1021,9 0,0
13.11.2018 09:00:00 15,3 8,8 6 4 15 8 NW 1021,4 0,0
13.11.2018 08:00:00 14,2 8,8 5 3 16 8 NNW 1020,9 0,0
13.11.2018 07:00:00 14,1 9,3 6 3 13 7 NNW 1020,4 -
13.11.2018 06:00:00 14,1 9,7 5 3 13 7 WNW 1020,1 0,0
13.11.2018 05:00:00 14,2 10,4 6 3 11 6 NNW 1019,9 0,0
13.11.2018 04:00:00 14,3 10,5 6 4 14 8 NW 1020,0 0,0
13.11.2018 03:00:00 14,0 10,6 9 5 14 7 WNW 1019,8 0,0
13.11.2018 02:00:00 14,5 11,5 10 5 16 8 W 1019,9 0,0
13.11.2018 01:00:00 14,5 11,3 6 4 13 7 NW 1019,6 -
13.11.2018 00:00:00 14,8 11,9 4 2 14 7 NNW 1019,3 0,0
12.11.2018 23:00:00 14,6 12,1 6 3 12 7 N 1018,8 0,0
12.11.2018 22:00:00 15,1 13,0 7 4 11 6 NW 1018,9 0,0
12.11.2018 21:00:00 15,5 13,3 2 1 17 9 S 1018,1 0,0
12.11.2018 20:00:00 15,6 13,4 10 6 16 9 E 1017,4 0,0
12.11.2018 19:00:00 15,9 13,7 6 3 9 5 E 1017,7 -
12.11.2018 18:00:00 16,0 13,5 6 3 11 6 E 1016,7 0,0
12.11.2018 17:00:00 16,1 13,4 8 4 17 9 ESE 1016,1 0,0
12.11.2018 16:00:00 17,0 11,5 6 3 22 12 ESE 1015,7 0,0
12.11.2018 15:00:00 20,4 9,9 9 5 16 9 WSW 1015,3 0,0
12.11.2018 14:00:00 18,9 11,0 6 4 11 6 W 1015,3 0,0
12.11.2018 13:00:00 18,3 10,2 3 2 11 6 SSW 1016,2 -
12.11.2018 12:00:00 16,9 10,3 6 3 13 7 W 1017,0 0,0
12.11.2018 11:00:00 16,0 9,2 0 0 8 4 E 1016,8 0,0
12.11.2018 10:00:00 14,3 9,5 4 2 16 9 WNW 1016,5 0,0
12.11.2018 09:00:00 13,3 6,4 5 3 16 8 NW 1015,7 0,0
12.11.2018 08:00:00 12,5 8,0 6 3 12 6 NW 1015,2 0,0
12.11.2018 07:00:00 13,1 8,0 6 3 11 6 NW 1014,4 -
12.11.2018 06:00:00 12,9 8,0 4 2 9 5 NNW 1014,0 0,0
12.11.2018 05:00:00 13,1 7,8 8 4 14 8 NW 1014,2 0,0
12.11.2018 04:00:00 13,0 7,9 8 5 14 8 NNW 1014,5 0,0
12.11.2018 03:00:00 13,9 8,9 3 2 10 5 NNW 1014,8 0,0
12.11.2018 02:00:00 14,0 8,8 4 2 11 6 NNW 1014,9 0,0
12.11.2018 01:00:00 14,2 9,2 5 3 13 7 N 1015,0 -
12.11.2018 00:00:00 14,3 9,9 8 4 13 7 NNW 1014,9 0,0
11.11.2018 23:00:00 14,6 11,4 3 2 11 6 N 1014,7 0,0
11.11.2018 22:00:00 15,2 12,9 3 1 10 5 NW 1014,7 0,0
11.11.2018 21:00:00 15,6 13,4 6 3 9 5 NNE 1014,6 0,0
11.11.2018 20:00:00 15,9 13,6 6 3 10 6 ENE 1014,5 0,0
11.11.2018 19:00:00 16,1 13,4 5 3 14 7 E 1014,3 -
11.11.2018 18:00:00 16,3 12,8 5 3 14 8 E 1014,1 0,0
11.11.2018 17:00:00 17,4 12,5 7 4 18 10 SE 1014,0 0,0
11.11.2018 16:00:00 17,8 13,3 5 3 25 14 ESE 1014,1 0,0
11.11.2018 15:00:00 18,1 11,9 7 4 15 8 S 1014,2 0,0
11.11.2018 14:00:00 18,5 11,3 6 3 15 8 SE 1015,0 0,0
11.11.2018 13:00:00 18,9 11,2 7 4 17 9 E 1016,1 -
11.11.2018 12:00:00 18,7 10,5 9 5 19 10 E 1016,8 0,0
11.11.2018 11:00:00 19,8 9,7 7 4 13 7 E 1017,2 0,0
11.11.2018 10:00:00 18,7 9,8 4 2 13 7 NNW 1016,9 0,0
11.11.2018 09:00:00 16,4 9,6 4 2 14 8 N 1017,0 0,0
11.11.2018 08:00:00 14,7 9,3 4 2 11 6 NNW 1017,3 0,0
11.11.2018 07:00:00 15,2 9,1 5 3 16 8 N 1016,8 -
11.11.2018 06:00:00 16,1 10,0 11 6 21 11 W 1016,6 0,0
11.11.2018 05:00:00 16,3 10,2 11 6 23 12 WNW 1016,6 0,0
11.11.2018 04:00:00 16,2 10,3 10 5 28 15 W 1016,8 0,0
11.11.2018 03:00:00 16,3 9,7 13 7 19 10 W 1017,1 0,0
11.11.2018 02:00:00 16,4 9,8 10 5 25 14 WNW 1017,4 0,0
11.11.2018 01:00:00 16,9 9,6 15 8 29 16 WSW 1017,8 -
11.11.2018 00:00:00 17,4 9,1 13 7 29 16 WSW 1017,9 0,0
10.11.2018 23:00:00 18,2 8,8 10 6 20 11 W 1018,1 0,0
10.11.2018 22:00:00 18,3 8,6 12 6 28 15 WNW 1018,3 0,0
10.11.2018 21:00:00 18,7 8,7 10 6 25 14 NW 1018,2 0,0
10.11.2018 20:00:00 18,6 8,6 11 6 26 14 NW 1018,2 0,0
10.11.2018 19:00:00 18,8 8,8 13 7 23 13 NW 1017,9 -
10.11.2018 18:00:00 19,6 8,3 9 5 26 14 NW 1017,7 0,0
10.11.2018 17:00:00 20,9 8,2 10 5 31 17 NW 1017,5 0,0
10.11.2018 16:00:00 21,4 8,3 10 6 28 15 WNW 1017,4 0,0
10.11.2018 15:00:00 21,0 8,0 17 9 33 18 WNW 1017,5 0,0
10.11.2018 14:00:00 21,6 8,5 9 5 29 16 WNW 1018,1 0,0
10.11.2018 13:00:00 20,1 7,8 13 7 35 19 WNW 1019,0 -
10.11.2018 12:00:00 18,7 7,2 19 10 35 19 W 1020,0 0,0
10.11.2018 11:00:00 18,4 7,2 16 9 32 18 WNW 1020,5 0,0
10.11.2018 10:00:00 17,3 6,5 13 7 24 13 WNW 1020,3 0,0
10.11.2018 09:00:00 16,0 6,2 12 7 28 15 W 1020,5 0,0
10.11.2018 08:00:00 14,9 6,2 11 6 24 13 NW 1020,0 0,0
10.11.2018 07:00:00 14,4 6,5 12 6 26 14 W 1019,7 -
10.11.2018 06:00:00 14,5 6,1 11 6 30 16 W 1019,8 0,0
10.11.2018 05:00:00 14,2 5,8 12 6 28 15 W 1019,8 0,0
10.11.2018 04:00:00 14,6 5,4 18 10 31 17 W 1020,2 0,0
10.11.2018 03:00:00 14,9 5,7 14 8 33 18 W 1020,4 0,0
10.11.2018 02:00:00 14,8 5,6 11 6 36 20 W 1020,9 0,0
10.11.2018 01:00:00 15,5 5,7 11 6 26 14 WNW 1021,2 -
10.11.2018 00:00:00 15,6 5,5 17 9 32 17 WNW 1021,8 0,0
09.11.2018 23:00:00 15,6 5,5 13 7 29 15 WNW 1022,4 0,0
09.11.2018 22:00:00 15,4 5,1 11 6 23 12 WNW 1023,0 0,0
09.11.2018 21:00:00 15,8 4,8 9 5 19 10 W 1022,6 0,0
09.11.2018 20:00:00 15,9 4,3 9 5 28 15 WNW 1022,9 0,0
09.11.2018 19:00:00 16,1 3,5 11 6 32 17 NW 1022,3 -
09.11.2018 18:00:00 16,6 3,0 14 7 34 18 WNW 1021,5 0,0
09.11.2018 17:00:00 17,6 2,4 16 9 31 17 WNW 1021,3 0,0
09.11.2018 16:00:00 18,1 2,4 14 7 33 18 WNW 1021,2 0,0
09.11.2018 15:00:00 18,1 2,4 13 7 36 19 NW 1021,4 0,0
09.11.2018 14:00:00 17,8 2,9 16 8 41 22 NW 1021,9 0,0
09.11.2018 13:00:00 17,3 3,2 18 10 40 21 NW 1022,7 -
09.11.2018 12:00:00 16,6 3,0 22 12 38 21 NW 1023,4 0,0
09.11.2018 11:00:00 16,1 3,5 13 7 31 17 WNW 1023,8 0,0
09.11.2018 10:00:00 15,2 4,3 13 7 31 17 NW 1023,5 0,0
09.11.2018 09:00:00 13,8 4,7 17 9 36 20 NW 1023,1 0,0
09.11.2018 08:00:00 13,1 5,0 17 9 32 17 WNW 1022,9 0,0
09.11.2018 07:00:00 13,0 5,4 10 6 26 14 W 1022,2 -
09.11.2018 06:00:00 13,4 5,6 10 5 28 15 W 1021,9 0,0
09.11.2018 05:00:00 13,6 6,0 10 6 24 13 WNW 1021,5 0,0
09.11.2018 04:00:00 14,1 5,7 16 8 41 22 NW 1020,8 0,0
09.11.2018 03:00:00 14,6 6,7 14 8 34 18 WNW 1020,6 0,0
09.11.2018 02:00:00 14,9 7,2 14 7 29 16 WNW 1020,0 0,0
09.11.2018 01:00:00 15,2 10,8 9 5 23 12 WNW 1020,2 -
09.11.2018 00:00:00 14,4 12,3 5 3 14 8 NNW 1020,1 1,0
08.11.2018 23:00:00 14,6 12,5 5 3 13 7 NNW 1019,7 0,0
08.11.2018 22:00:00 15,6 13,8 6 3 10 6 N 1019,0 0,0
08.11.2018 21:00:00 15,7 13,7 4 2 13 7 SW 1018,8 0,1
08.11.2018 20:00:00 15,4 13,4 4 2 11 6 NW 1018,1 1,3
08.11.2018 19:00:00 16,1 13,6 4 2 17 9 SSW 1018,1 -
08.11.2018 18:00:00 16,7 12,9 4 2 15 8 ESE 1017,7 0,4
08.11.2018 17:00:00 17,6 11,9 13 7 21 12 S 1017,4 0,0
08.11.2018 16:00:00 17,7 12,2 10 5 17 9 E 1017,2 0,0
08.11.2018 15:00:00 17,8 10,9 10 5 18 10 SE 1017,2 0,0
08.11.2018 14:00:00 17,2 13,1 10 5 16 9 SE 1017,7 0,0
08.11.2018 13:00:00 16,9 13,0 11 6 15 8 SE 1018,8 -

tt = temperature
td = dewpoint
ff = wind speed
fx = gusts
dd = wind direction
ppp = reduced air pressure
rr = precipitation

Next stations